createdAt,value
2023-04-16T00:00:23.714Z,0.00
2023-04-16T00:02:50.555Z,0.00
2023-04-16T00:05:17.220Z,0.00
2023-04-16T00:07:43.664Z,0.00
2023-04-16T00:10:10.413Z,0.00
2023-04-16T00:12:36.910Z,0.00
2023-04-16T00:15:03.556Z,0.00
2023-04-16T00:17:30.080Z,0.00
2023-04-16T00:19:56.528Z,0.00
2023-04-16T00:22:22.991Z,0.00
2023-04-16T00:24:49.457Z,0.00
2023-04-16T00:27:16.326Z,0.00
2023-04-16T00:29:42.941Z,0.00
2023-04-16T00:32:09.837Z,0.20
2023-04-16T00:34:36.287Z,0.00
2023-04-16T00:37:02.756Z,0.00
2023-04-16T00:39:29.266Z,0.00
2023-04-16T00:41:55.929Z,0.00
2023-04-16T00:44:22.431Z,0.25
2023-04-16T00:46:49.113Z,0.25
2023-04-16T00:49:15.639Z,0.00
2023-04-16T00:51:42.175Z,0.00
2023-04-16T00:54:08.669Z,1.00
2023-04-16T00:56:35.636Z,0.00
2023-04-16T00:59:02.420Z,0.00
2023-04-16T01:01:28.890Z,2.75
2023-04-16T01:03:56.069Z,7.00
2023-04-16T01:06:22.618Z,1.00
2023-04-16T01:08:49.178Z,2.00
2023-04-16T01:11:16.025Z,3.50
2023-04-16T01:13:42.597Z,1.00
2023-04-16T01:16:09.844Z,1.50
2023-04-16T01:18:36.763Z,1.00
2023-04-16T01:21:04.075Z,2.00
2023-04-16T01:23:30.908Z,0.20
2023-04-16T01:25:57.367Z,1.00
2023-04-16T01:28:23.860Z,2.00
2023-04-16T01:30:50.299Z,2.00
2023-04-16T01:33:18.357Z,0.60
2023-04-16T01:35:45.020Z,2.80
2023-04-16T01:38:11.498Z,4.40
2023-04-16T01:40:38.328Z,2.40
2023-04-16T01:43:04.840Z,1.50
2023-04-16T01:45:31.666Z,1.60
2023-04-16T01:47:58.244Z,2.00
2023-04-16T01:50:24.690Z,1.00
2023-04-16T01:52:51.266Z,1.50
2023-04-16T01:55:17.800Z,1.00
2023-04-16T01:57:44.351Z,4.00
2023-04-16T02:00:11.388Z,1.50
2023-04-16T02:02:40.902Z,1.00
2023-04-16T02:05:07.537Z,0.75
2023-04-16T02:07:34.018Z,0.80
2023-04-16T02:10:00.556Z,0.00
2023-04-16T02:12:27.510Z,1.00
2023-04-16T02:14:54.011Z,0.60
2023-04-16T02:17:20.556Z,1.40
2023-04-16T02:19:47.355Z,0.60
2023-04-16T02:22:13.928Z,2.60
2023-04-16T02:24:40.423Z,2.00
2023-04-16T02:27:07.130Z,2.00
2023-04-16T02:29:33.573Z,2.00
2023-04-16T02:32:00.084Z,2.00
2023-04-16T02:34:28.449Z,3.00
2023-04-16T02:36:55.412Z,2.00
2023-04-16T02:39:22.270Z,2.00
2023-04-16T02:41:48.761Z,4.00
2023-04-16T02:44:15.705Z,3.00
2023-04-16T02:46:42.156Z,2.60
2023-04-16T02:49:08.848Z,2.00
2023-04-16T02:51:35.425Z,1.60
2023-04-16T02:54:03.091Z,2.25
2023-04-16T02:56:29.730Z,2.25
2023-04-16T02:58:56.183Z,1.75
2023-04-16T03:01:22.716Z,6.00
2023-04-16T03:03:49.307Z,5.00
2023-04-16T03:06:15.809Z,4.20
2023-04-16T03:08:42.235Z,5.20
2023-04-16T03:11:08.692Z,6.00
2023-04-16T03:13:35.274Z,7.00
2023-04-16T03:16:01.950Z,7.80
2023-04-16T03:18:28.536Z,7.00
2023-04-16T03:20:55.058Z,7.00
2023-04-16T03:23:21.600Z,7.25
2023-04-16T03:25:48.098Z,8.00
2023-04-16T03:28:15.051Z,11.00
2023-04-16T03:30:41.568Z,12.00
2023-04-16T03:33:07.998Z,11.67
2023-04-16T03:35:34.834Z,10.00
2023-04-16T03:38:01.548Z,8.00
2023-04-16T03:40:28.015Z,10.80
2023-04-16T03:42:54.486Z,11.80
2023-04-16T03:45:20.953Z,10.00
2023-04-16T03:47:52.510Z,9.75
2023-04-16T03:50:19.559Z,8.50
2023-04-16T03:52:46.997Z,9.00
2023-04-16T03:55:14.039Z,7.33
2023-04-16T03:57:41.116Z,12.75
2023-04-16T04:00:07.951Z,11.50
2023-04-16T04:02:34.539Z,10.40
2023-04-16T04:05:01.206Z,10.80
2023-04-16T04:07:27.702Z,8.00
2023-04-16T04:09:54.334Z,8.40
2023-04-16T04:12:20.868Z,9.00
2023-04-16T04:14:47.352Z,10.00
2023-04-16T04:17:13.836Z,12.00
2023-04-16T04:19:47.077Z,9.00
2023-04-16T04:22:17.288Z,13.00
2023-04-16T04:24:43.750Z,12.00
2023-04-16T04:27:10.203Z,9.75
2023-04-16T04:29:36.664Z,9.00
2023-04-16T04:32:03.212Z,12.00
2023-04-16T04:34:29.801Z,9.00
2023-04-16T04:36:56.338Z,11.00
2023-04-16T04:39:22.813Z,10.00
2023-04-16T04:41:49.291Z,12.00
2023-04-16T04:44:15.819Z,12.40
2023-04-16T04:46:42.318Z,12.25
2023-04-16T04:49:09.062Z,12.50
2023-04-16T04:51:35.848Z,13.00
2023-04-16T04:54:02.402Z,13.00
2023-04-16T04:56:28.848Z,13.00
2023-04-16T04:58:55.838Z,13.00
2023-04-16T05:01:22.363Z,11.00
2023-04-16T05:03:48.896Z,9.00
2023-04-16T05:06:15.696Z,16.50
2023-04-16T05:08:42.112Z,11.33
2023-04-16T05:11:08.589Z,14.00
2023-04-16T05:13:35.082Z,10.60
2023-04-16T05:16:01.594Z,14.00
2023-04-16T05:18:28.126Z,16.00
2023-04-16T05:20:54.586Z,12.00
2023-04-16T05:23:21.044Z,13.00
2023-04-16T05:25:47.513Z,12.00
2023-04-16T05:28:13.930Z,12.75
2023-04-16T05:30:40.463Z,11.75
2023-04-16T05:33:06.989Z,12.40
2023-04-16T05:35:33.491Z,18.00
2023-04-16T05:37:59.919Z,13.80
2023-04-16T05:40:27.097Z,12.50
2023-04-16T05:42:53.547Z,14.40
2023-04-16T05:45:20.067Z,13.00
2023-04-16T05:47:46.537Z,11.00
2023-04-16T05:50:13.050Z,13.00
2023-04-16T05:52:39.471Z,12.00
2023-04-16T05:55:06.317Z,13.75
2023-04-16T05:57:33.230Z,11.00
2023-04-16T05:59:59.678Z,10.80
2023-04-16T06:02:26.320Z,10.20
2023-04-16T06:04:52.828Z,12.00
2023-04-16T06:07:19.249Z,8.75
2023-04-16T06:09:45.811Z,9.75
2023-04-16T06:12:12.485Z,10.60
2023-04-16T06:14:38.955Z,8.25
2023-04-16T06:17:05.399Z,13.80
2023-04-16T06:19:31.807Z,13.00
2023-04-16T06:21:58.271Z,11.25
2023-04-16T06:24:24.758Z,8.20
2023-04-16T06:26:51.336Z,11.50
2023-04-16T06:29:17.976Z,11.00
2023-04-16T06:31:44.536Z,12.50
2023-04-16T06:34:11.166Z,7.75
2023-04-16T06:36:37.803Z,9.00
2023-04-16T06:39:04.375Z,8.80
2023-04-16T06:41:30.893Z,10.00
2023-04-16T06:43:57.347Z,10.75
2023-04-16T06:46:23.852Z,9.00
2023-04-16T06:48:50.572Z,11.25
2023-04-16T06:51:17.251Z,9.40
2023-04-16T06:53:43.793Z,7.40
2023-04-16T06:56:10.238Z,8.60
2023-04-16T06:58:36.666Z,8.20
2023-04-16T07:01:03.345Z,6.75
2023-04-16T07:03:30.138Z,9.00
2023-04-16T07:05:56.788Z,9.00
2023-04-16T07:08:23.333Z,8.80
2023-04-16T07:10:49.831Z,7.75
2023-04-16T07:13:16.770Z,9.00
2023-04-16T07:15:43.222Z,7.80
2023-04-16T07:18:09.789Z,8.00
2023-04-16T07:20:36.525Z,8.00
2023-04-16T07:23:02.981Z,6.00
2023-04-16T07:25:29.489Z,7.00
2023-04-16T07:27:55.962Z,6.20
2023-04-16T07:30:22.409Z,6.60
2023-04-16T07:32:48.947Z,6.00
2023-04-16T07:35:15.897Z,5.00
2023-04-16T07:37:42.528Z,5.60
2023-04-16T07:40:09.218Z,9.00
2023-04-16T07:42:35.753Z,9.00
2023-04-16T07:45:02.247Z,9.00
2023-04-16T07:47:28.753Z,8.00
2023-04-16T07:49:55.397Z,7.80
2023-04-16T07:52:21.820Z,5.80
2023-04-16T07:54:48.355Z,7.00
2023-04-16T07:57:14.832Z,7.40
2023-04-16T07:59:41.269Z,6.00
2023-04-16T08:02:09.835Z,7.75
2023-04-16T08:04:36.597Z,6.00
2023-04-16T08:07:03.231Z,6.00
2023-04-16T08:09:29.782Z,7.00
2023-04-16T08:11:56.381Z,5.50
2023-04-16T08:14:23.194Z,4.00
2023-04-16T08:16:49.742Z,6.40
2023-04-16T08:19:16.229Z,6.00
2023-04-16T08:21:42.872Z,9.00
2023-04-16T08:24:09.349Z,6.75
2023-04-16T08:26:36.010Z,7.00
2023-04-16T08:29:02.452Z,7.00
2023-04-16T08:31:29.043Z,6.00
2023-04-16T08:33:55.566Z,6.80
2023-04-16T08:36:22.080Z,9.25
2023-04-16T08:38:48.532Z,6.80
2023-04-16T08:41:15.866Z,8.33
2023-04-16T08:43:44.791Z,6.40
2023-04-16T08:46:12.188Z,8.00
2023-04-16T08:48:39.545Z,5.40
2023-04-16T08:51:09.457Z,6.60
2023-04-16T08:53:43.002Z,5.60
2023-04-16T08:56:11.420Z,7.20
2023-04-16T08:58:39.680Z,7.00
2023-04-16T09:01:06.445Z,5.00
2023-04-16T09:03:36.174Z,4.00
2023-04-16T09:06:04.356Z,6.00
2023-04-16T09:08:31.033Z,7.80
2023-04-16T09:10:57.620Z,7.40
2023-04-16T09:13:24.123Z,7.50
2023-04-16T09:15:54.306Z,5.25
2023-04-16T09:18:21.456Z,8.50
2023-04-16T09:20:48.831Z,6.00
2023-04-16T09:23:15.380Z,4.33
2023-04-16T09:25:41.858Z,5.00
2023-04-16T09:28:09.087Z,5.40
2023-04-16T09:30:37.174Z,6.50
2023-04-16T09:33:23.075Z,2.60
2023-04-16T09:35:50.919Z,4.00
2023-04-16T09:38:20.456Z,6.00
2023-04-16T09:40:49.807Z,6.00
2023-04-16T09:43:17.220Z,6.00
2023-04-16T09:45:54.246Z,4.00
2023-04-16T09:48:33.522Z,6.60
2023-04-16T09:51:00.642Z,5.67
2023-04-16T09:53:28.588Z,7.00
2023-04-16T09:55:58.186Z,4.60
2023-04-16T09:58:25.077Z,8.50
2023-04-16T10:01:06.880Z,8.00
2023-04-16T10:03:34.672Z,8.00
2023-04-16T10:06:04.405Z,5.00
2023-04-16T10:08:30.992Z,5.00
2023-04-16T10:10:57.893Z,6.00
2023-04-16T10:13:27.757Z,5.00
2023-04-16T10:15:57.511Z,7.00
2023-04-16T10:18:23.970Z,4.50
2023-04-16T10:20:51.003Z,5.00
2023-04-16T10:23:17.489Z,8.60
2023-04-16T10:25:45.635Z,6.00
2023-04-16T10:28:13.354Z,7.00
2023-04-16T10:30:40.348Z,6.00
2023-04-16T10:33:07.526Z,7.00
2023-04-16T10:35:39.005Z,5.00
2023-04-16T10:38:25.954Z,5.00
2023-04-16T10:40:59.346Z,9.75
2023-04-16T10:43:26.122Z,6.60
2023-04-16T10:45:53.834Z,4.00
2023-04-16T10:48:21.208Z,4.40
2023-04-16T10:50:54.620Z,4.60
2023-04-16T10:53:23.897Z,5.00
2023-04-16T10:56:11.683Z,7.00
2023-04-16T10:58:38.544Z,4.60
2023-04-16T11:01:12.401Z,4.00
2023-04-16T11:03:47.235Z,5.00
2023-04-16T11:06:16.624Z,5.60
2023-04-16T11:08:54.753Z,5.75
2023-04-16T11:11:21.998Z,4.00
2023-04-16T11:13:48.549Z,6.00
2023-04-16T11:16:16.321Z,7.00
2023-04-16T11:18:51.419Z,7.75
2023-04-16T11:21:18.437Z,6.00
2023-04-16T11:23:48.763Z,7.00
2023-04-16T11:26:26.056Z,6.00
2023-04-16T11:28:53.003Z,5.00
2023-04-16T11:31:19.615Z,6.50
2023-04-16T11:33:46.115Z,6.00
2023-04-16T11:36:12.634Z,10.60
2023-04-16T11:38:41.175Z,8.75
2023-04-16T11:41:07.670Z,5.00
2023-04-16T11:43:34.126Z,5.60
2023-04-16T11:46:07.482Z,6.40
2023-04-16T11:48:47.006Z,6.00
2023-04-16T11:51:13.741Z,5.00
2023-04-16T11:53:56.292Z,3.20
2023-04-16T11:56:29.526Z,6.40
2023-04-16T11:59:11.554Z,3.80
2023-04-16T12:01:39.172Z,6.40
2023-04-16T12:04:06.306Z,6.75
2023-04-16T12:06:33.111Z,5.00
2023-04-16T12:09:00.560Z,3.50
2023-04-16T12:11:42.454Z,3.00
2023-04-16T12:14:12.875Z,10.00
2023-04-16T12:16:39.386Z,7.00
2023-04-16T12:19:06.052Z,4.80
2023-04-16T12:21:36.366Z,6.50
2023-04-16T12:24:02.893Z,6.60
2023-04-16T12:26:36.105Z,3.20
2023-04-16T12:29:21.789Z,3.00
2023-04-16T12:31:49.153Z,5.00
2023-04-16T12:34:16.149Z,4.40
2023-04-16T12:36:43.418Z,4.50
2023-04-16T12:39:11.339Z,3.40
2023-04-16T12:41:38.962Z,4.00
2023-04-16T12:44:12.146Z,3.20
2023-04-16T12:46:39.472Z,5.60
2023-04-16T12:49:06.064Z,2.60
2023-04-16T12:51:33.208Z,3.00
2023-04-16T12:54:00.357Z,3.00
2023-04-16T12:56:27.750Z,4.00
2023-04-16T12:58:54.394Z,3.50
2023-04-16T13:01:20.867Z,4.00
2023-04-16T13:03:48.000Z,2.60
2023-04-16T13:06:15.357Z,4.00
2023-04-16T13:08:43.076Z,3.00
2023-04-16T13:11:09.654Z,3.00
2023-04-16T13:13:36.241Z,4.00
2023-04-16T13:16:06.874Z,2.00
2023-04-16T13:18:33.681Z,4.25
2023-04-16T13:21:00.194Z,3.40
2023-04-16T13:23:27.119Z,3.00
2023-04-16T13:25:53.656Z,4.20
2023-04-16T13:28:20.214Z,4.00
2023-04-16T13:30:49.751Z,4.60
2023-04-16T13:33:16.438Z,5.40
2023-04-16T13:35:43.063Z,3.00
2023-04-16T13:38:09.508Z,3.60
2023-04-16T13:40:36.079Z,3.60
2023-04-16T13:43:02.551Z,5.40
2023-04-16T13:45:29.078Z,4.75
2023-04-16T13:47:56.382Z,4.00
2023-04-16T13:50:23.011Z,3.00
2023-04-16T13:52:49.507Z,3.00
2023-04-16T13:55:19.186Z,3.40
2023-04-16T13:57:47.290Z,3.40
2023-04-16T14:00:14.529Z,4.00
2023-04-16T14:02:42.338Z,4.00
2023-04-16T14:05:09.246Z,2.40
2023-04-16T14:07:35.720Z,5.00
2023-04-16T14:10:02.267Z,3.75
2023-04-16T14:12:28.996Z,3.80
2023-04-16T14:14:55.499Z,3.20
2023-04-16T14:17:22.182Z,3.00
2023-04-16T14:19:48.689Z,4.00
2023-04-16T14:22:17.781Z,3.40
2023-04-16T14:24:44.682Z,6.00
2023-04-16T14:27:11.351Z,5.00
2023-04-16T14:29:37.951Z,4.40
2023-04-16T14:32:04.679Z,4.00
2023-04-16T14:34:31.188Z,4.00
2023-04-16T14:36:57.641Z,6.00
2023-04-16T14:39:25.483Z,3.67
2023-04-16T14:41:51.933Z,3.40
2023-04-16T14:44:18.354Z,4.80
2023-04-16T14:46:44.856Z,3.00
2023-04-16T14:49:12.353Z,6.00
2023-04-16T14:51:38.949Z,2.75
2023-04-16T14:54:05.440Z,5.20
2023-04-16T14:56:31.904Z,3.75
2023-04-16T14:58:58.491Z,5.00
2023-04-16T15:01:25.115Z,6.25
2023-04-16T15:03:51.713Z,6.00
2023-04-16T15:06:19.044Z,4.40
2023-04-16T15:08:45.817Z,5.00
2023-04-16T15:11:12.243Z,4.40
2023-04-16T15:13:39.116Z,5.00
2023-04-16T15:16:05.687Z,6.00
2023-04-16T15:18:32.756Z,7.00
2023-04-16T15:20:59.264Z,4.50
2023-04-16T15:23:25.705Z,4.00
2023-04-16T15:25:52.310Z,7.00
2023-04-16T15:28:18.886Z,5.50
2023-04-16T15:30:45.654Z,5.50
2023-04-16T15:33:12.768Z,7.50
2023-04-16T15:35:41.272Z,10.75
2023-04-16T15:38:08.272Z,4.60
2023-04-16T15:40:35.517Z,7.00
2023-04-16T15:43:02.039Z,5.20
2023-04-16T15:45:28.605Z,6.00
2023-04-16T15:47:55.340Z,4.80
2023-04-16T15:50:21.993Z,5.00
2023-04-16T15:52:48.511Z,6.00
2023-04-16T15:55:18.453Z,5.00
2023-04-16T15:57:45.031Z,4.80
2023-04-16T16:00:17.131Z,4.60
2023-04-16T16:02:44.806Z,5.00
2023-04-16T16:05:15.206Z,5.40
2023-04-16T16:07:41.894Z,5.00
2023-04-16T16:10:09.413Z,6.75
2023-04-16T16:12:37.527Z,6.00
2023-04-16T16:15:04.768Z,6.00
2023-04-16T16:17:31.304Z,6.00
2023-04-16T16:19:58.759Z,7.00
2023-04-16T16:22:25.544Z,5.60
2023-04-16T16:24:52.373Z,9.40
2023-04-16T16:27:19.454Z,6.00
2023-04-16T16:29:46.025Z,6.00
2023-04-16T16:32:12.742Z,7.00
2023-04-16T16:34:39.309Z,5.20
2023-04-16T16:37:06.017Z,6.00
2023-04-16T16:39:32.925Z,8.00
2023-04-16T16:41:59.631Z,7.00
2023-04-16T16:44:26.132Z,5.60
2023-04-16T16:46:52.902Z,7.20
2023-04-16T16:49:19.514Z,8.60
2023-04-16T16:51:46.765Z,8.00
2023-04-16T16:54:13.303Z,9.00
2023-04-16T16:56:39.833Z,6.75
2023-04-16T16:59:06.957Z,9.60
2023-04-16T17:01:33.505Z,8.60
2023-04-16T17:04:00.352Z,12.80
2023-04-16T17:06:27.887Z,10.60
2023-04-16T17:08:54.462Z,9.00
2023-04-16T17:11:20.973Z,9.00
2023-04-16T17:13:47.507Z,10.00
2023-04-16T17:16:15.513Z,9.80
2023-04-16T17:18:41.999Z,9.20
2023-04-16T17:21:08.483Z,8.00
2023-04-16T17:23:34.934Z,9.00
2023-04-16T17:26:01.384Z,10.00
2023-04-16T17:28:27.948Z,9.00
2023-04-16T17:30:56.193Z,9.00
2023-04-16T17:33:22.728Z,9.20
2023-04-16T17:35:49.184Z,12.00
2023-04-16T17:38:15.677Z,10.00
2023-04-16T17:40:42.191Z,10.75
2023-04-16T17:43:08.716Z,10.25
2023-04-16T17:45:35.386Z,12.40
2023-04-16T17:48:01.961Z,15.75
2023-04-16T17:50:28.532Z,15.40
2023-04-16T17:52:54.991Z,12.60
2023-04-16T17:55:21.611Z,15.00
2023-04-16T17:57:48.117Z,10.00
2023-04-16T18:00:14.808Z,12.50
2023-04-16T18:02:41.402Z,12.80
2023-04-16T18:05:08.243Z,14.50
2023-04-16T18:07:35.503Z,12.20
2023-04-16T18:10:02.021Z,14.00
2023-04-16T18:12:28.582Z,16.00
2023-04-16T18:14:55.004Z,13.40
2023-04-16T18:17:24.315Z,12.00
2023-04-16T18:19:51.079Z,11.50
2023-04-16T18:22:17.529Z,12.00
2023-04-16T18:24:43.984Z,13.00
2023-04-16T18:27:10.467Z,12.60
2023-04-16T18:29:38.894Z,11.50
2023-04-16T18:32:06.640Z,11.60
2023-04-16T18:34:33.513Z,14.00
2023-04-16T18:36:59.997Z,13.20
2023-04-16T18:39:26.438Z,11.60
2023-04-16T18:41:53.050Z,12.00
2023-04-16T18:44:19.965Z,10.75
2023-04-16T18:46:46.552Z,11.00
2023-04-16T18:49:13.524Z,16.00
2023-04-16T18:51:41.964Z,20.60
2023-04-16T18:54:08.402Z,15.80
2023-04-16T18:56:34.923Z,14.00
2023-04-16T18:59:01.520Z,13.00
2023-04-16T19:01:28.011Z,14.60
2023-04-16T19:03:54.637Z,13.50
2023-04-16T19:06:21.156Z,14.60
2023-04-16T19:08:47.749Z,14.50
2023-04-16T19:11:14.221Z,15.50
2023-04-16T19:13:40.737Z,18.00
2023-04-16T19:16:11.412Z,17.00
2023-04-16T19:18:38.627Z,14.00
2023-04-16T19:21:07.213Z,20.00
2023-04-16T19:23:33.713Z,17.00
2023-04-16T19:26:01.619Z,18.50
2023-04-16T19:28:28.451Z,14.00
2023-04-16T19:30:54.888Z,19.00
2023-04-16T19:33:21.561Z,16.00
2023-04-16T19:35:48.029Z,17.00
2023-04-16T19:38:14.558Z,16.00
2023-04-16T19:40:43.656Z,17.00
2023-04-16T19:43:10.152Z,14.00
2023-04-16T19:45:42.071Z,18.20
2023-04-16T19:48:08.744Z,16.60
2023-04-16T19:50:35.296Z,21.40
2023-04-16T19:53:03.163Z,15.75
2023-04-16T19:55:29.612Z,12.50
2023-04-16T19:57:56.243Z,15.00
2023-04-16T20:00:22.814Z,15.00
2023-04-16T20:02:49.683Z,15.25
2023-04-16T20:05:16.367Z,15.80
2023-04-16T20:07:43.030Z,16.40
2023-04-16T20:10:09.782Z,13.00
2023-04-16T20:12:37.883Z,15.80
2023-04-16T20:15:04.895Z,14.60
2023-04-16T20:17:31.469Z,16.75
2023-04-16T20:20:01.092Z,15.80
2023-04-16T20:22:28.071Z,13.40
2023-04-16T20:24:55.079Z,16.00
2023-04-16T20:27:21.714Z,20.25
2023-04-16T20:29:48.192Z,18.60
2023-04-16T20:32:14.677Z,15.80
2023-04-16T20:34:41.161Z,21.00
2023-04-16T20:37:07.629Z,17.50
2023-04-16T20:39:34.285Z,21.50
2023-04-16T20:42:00.922Z,23.00
2023-04-16T20:44:33.259Z,18.25
2023-04-16T20:47:00.087Z,18.00
2023-04-16T20:49:26.579Z,21.50
2023-04-16T20:51:53.152Z,18.00
2023-04-16T20:54:19.702Z,21.00
2023-04-16T20:56:46.853Z,18.25
2023-04-16T20:59:13.478Z,16.00
2023-04-16T21:01:40.170Z,22.00
2023-04-16T21:04:07.182Z,18.00
2023-04-16T21:06:38.379Z,18.00
2023-04-16T21:09:06.011Z,23.75
2023-04-16T21:11:34.760Z,17.75
2023-04-16T21:14:04.528Z,19.00
2023-04-16T21:16:31.300Z,23.00
2023-04-16T21:18:58.298Z,24.75
2023-04-16T21:21:25.863Z,19.50
2023-04-16T21:23:52.290Z,21.00
2023-04-16T21:26:18.793Z,23.00
2023-04-16T21:28:45.303Z,20.75
2023-04-16T21:31:11.893Z,21.60
2023-04-16T21:33:38.421Z,20.00
2023-04-16T21:36:04.971Z,19.20
2023-04-16T21:38:31.448Z,18.20
2023-04-16T21:40:57.885Z,21.00
2023-04-16T21:43:24.370Z,17.00
2023-04-16T21:45:54.072Z,24.00
2023-04-16T21:48:21.011Z,20.00
2023-04-16T21:50:47.548Z,18.00
2023-04-16T21:53:13.995Z,23.00
2023-04-16T21:55:41.805Z,17.50
2023-04-16T21:58:08.236Z,21.20
2023-04-16T22:00:34.786Z,21.20
2023-04-16T22:03:02.184Z,21.00
2023-04-16T22:05:29.006Z,18.00
2023-04-16T22:07:55.841Z,21.80
2023-04-16T22:10:22.717Z,25.00
2023-04-16T22:12:49.466Z,20.00
2023-04-16T22:15:15.979Z,24.40
2023-04-16T22:17:42.583Z,16.25
2023-04-16T22:20:11.795Z,21.75
2023-04-16T22:22:38.942Z,20.40
2023-04-16T22:25:05.765Z,18.80
2023-04-16T22:27:32.462Z,17.50
2023-04-16T22:29:59.021Z,20.40
2023-04-16T22:32:25.580Z,27.00
2023-04-16T22:34:52.420Z,19.20
2023-04-16T22:37:19.884Z,20.50
2023-04-16T22:39:46.467Z,14.00
2023-04-16T22:42:12.969Z,17.25
2023-04-16T22:44:39.519Z,19.00
2023-04-16T22:47:05.926Z,18.40
2023-04-16T22:49:33.294Z,20.00
2023-04-16T22:52:02.940Z,20.40
2023-04-16T22:54:32.026Z,24.25
2023-04-16T22:56:58.650Z,26.00
2023-04-16T22:59:25.310Z,25.00
2023-04-16T23:01:52.116Z,21.00
2023-04-16T23:04:18.658Z,18.67
2023-04-16T23:06:45.193Z,22.60
2023-04-16T23:09:11.787Z,24.25
2023-04-16T23:11:38.426Z,19.75
2023-04-16T23:14:05.130Z,19.00
2023-04-16T23:16:31.562Z,22.00
2023-04-16T23:18:58.015Z,24.00
2023-04-16T23:21:24.497Z,30.60
2023-04-16T23:23:51.125Z,24.40
2023-04-16T23:26:18.585Z,23.00
2023-04-16T23:28:45.095Z,25.00
2023-04-16T23:31:11.641Z,24.75
2023-04-16T23:33:38.147Z,26.20
2023-04-16T23:36:04.847Z,23.75
2023-04-16T23:38:31.299Z,27.80
2023-04-16T23:40:57.771Z,26.00
2023-04-16T23:43:24.350Z,27.00
2023-04-16T23:45:50.822Z,25.50
2023-04-16T23:48:17.313Z,24.00
2023-04-16T23:50:43.791Z,25.80
2023-04-16T23:53:10.362Z,25.00
2023-04-16T23:55:36.800Z,24.00
2023-04-16T23:58:03.378Z,24.00
